Millvale, Pennsylvania
Current Conditions -  °F | °C
As of 10:27 AM on Wednesday 26 Nov 2014 (Local Time) from KAGC Reporting Station
Moderate Snow Moderate Snow  
Wind Chill: 31°   Ceiling: 1400
Heat Index: 31°   Visibility: 0.25mi
Dew Point: 27°   Wind: 3mph
Humidity: 85%   Direction: 10°N
Pressure: 30.06"   Gusts: NA
Location:  40.5015°N, 79.9773°W
Report Text: KAGC 261527Z 01003KT 1/4SM R28/3000V4000FT SN FZFG FEW003 OVC014 M01/M03 A3006 RMK AO2 P0004 T10061028
Loading
Personal Weather Stations






























Interactive Weather Map New forecast layout! Learn more

10-Day Weather Forecast

Advertisements
Track Severe Weather on mobile